sensor_id;sensor_type;location;lat;lon;timestamp;temperature;humidity
7143;DHT22;3613;48.902;9.204;2023-02-28T00:00:35;-1.50;99.90
7143;DHT22;3613;48.902;9.204;2023-02-28T00:03:01;-1.50;99.90
7143;DHT22;3613;48.902;9.204;2023-02-28T00:05:27;-1.50;99.90
7143;DHT22;3613;48.902;9.204;2023-02-28T00:07:54;-1.70;99.90
7143;DHT22;3613;48.902;9.204;2023-02-28T00:10:23;-1.70;99.90
7143;DHT22;3613;48.902;9.204;2023-02-28T00:12:49;-1.70;99.90
7143;DHT22;3613;48.902;9.204;2023-02-28T00:15:18;-1.60;99.90
7143;DHT22;3613;48.902;9.204;2023-02-28T00:17:44;-1.70;99.90
7143;DHT22;3613;48.902;9.204;2023-02-28T00:20:11;-1.70;99.90
7143;DHT22;3613;48.902;9.204;2023-02-28T00:22:42;-1.60;99.90
7143;DHT22;3613;48.902;9.204;2023-02-28T00:25:09;-1.60;99.90
7143;DHT22;3613;48.902;9.204;2023-02-28T00:27:37;-1.70;99.90
7143;DHT22;3613;48.902;9.204;2023-02-28T00:30:03;-1.60;99.90
7143;DHT22;3613;48.902;9.204;2023-02-28T00:32:29;-1.60;99.90
7143;DHT22;3613;48.902;9.204;2023-02-28T00:34:55;-1.60;99.90
7143;DHT22;3613;48.902;9.204;2023-02-28T00:37:21;-1.70;99.90
7143;DHT22;3613;48.902;9.204;2023-02-28T00:39:49;-1.70;99.90
7143;DHT22;3613;48.902;9.204;2023-02-28T00:42:15;-1.80;99.90
7143;DHT22;3613;48.902;9.204;2023-02-28T00:44:41;-1.80;99.90
7143;DHT22;3613;48.902;9.204;2023-02-28T00:47:09;-1.80;99.90
7143;DHT22;3613;48.902;9.204;2023-02-28T00:49:34;-1.80;99.90
7143;DHT22;3613;48.902;9.204;2023-02-28T00:52:03;-1.80;99.90
7143;DHT22;3613;48.902;9.204;2023-02-28T00:54:29;-1.80;99.90
7143;DHT22;3613;48.902;9.204;2023-02-28T00:56:54;-1.90;99.90
7143;DHT22;3613;48.902;9.204;2023-02-28T00:59:20;-1.80;99.90
7143;DHT22;3613;48.902;9.204;2023-02-28T01:01:49;-1.90;99.90
7143;DHT22;3613;48.902;9.204;2023-02-28T01:04:17;-1.80;99.90
7143;DHT22;3613;48.902;9.204;2023-02-28T01:06:45;-1.80;99.90
7143;DHT22;3613;48.902;9.204;2023-02-28T01:09:13;-1.90;99.90
7143;DHT22;3613;48.902;9.204;2023-02-28T01:11:42;-1.80;99.90
7143;DHT22;3613;48.902;9.204;2023-02-28T01:14:12;-1.90;99.90
7143;DHT22;3613;48.902;9.204;2023-02-28T01:16:38;-1.80;99.90
7143;DHT22;3613;48.902;9.204;2023-02-28T01:19:06;-1.90;99.90
7143;DHT22;3613;48.902;9.204;2023-02-28T01:21:31;-1.90;99.90
7143;DHT22;3613;48.902;9.204;2023-02-28T01:24:00;-1.90;99.90
7143;DHT22;3613;48.902;9.204;2023-02-28T01:26:26;-1.90;99.90
7143;DHT22;3613;48.902;9.204;2023-02-28T01:28:52;-1.90;99.90
7143;DHT22;3613;48.902;9.204;2023-02-28T01:31:19;-2.00;99.90
7143;DHT22;3613;48.902;9.204;2023-02-28T01:33:49;-4.70;99.90
7143;DHT22;3613;48.902;9.204;2023-02-28T01:36:18;-2.10;99.90
7143;DHT22;3613;48.902;9.204;2023-02-28T01:38:46;-2.10;99.90
7143;DHT22;3613;48.902;9.204;2023-02-28T01:41:22;-2.10;99.90
7143;DHT22;3613;48.902;9.204;2023-02-28T01:46:18;-2.20;99.90
7143;DHT22;3613;48.902;9.204;2023-02-28T01:48:45;-2.20;99.90
7143;DHT22;3613;48.902;9.204;2023-02-28T01:51:20;-2.20;99.90
7143;DHT22;3613;48.902;9.204;2023-02-28T01:53:54;-2.20;99.90
7143;DHT22;3613;48.902;9.204;2023-02-28T01:56:25;-2.20;99.90
7143;DHT22;3613;48.902;9.204;2023-02-28T01:58:55;-2.20;99.90
7143;DHT22;3613;48.902;9.204;2023-02-28T02:01:25;0.90;99.90
7143;DHT22;3613;48.902;9.204;2023-02-28T02:03:57;-2.20;99.90
7143;DHT22;3613;48.902;9.204;2023-02-28T02:06:40;-2.30;99.90
7143;DHT22;3613;48.902;9.204;2023-02-28T02:09:07;-2.40;99.90
7143;DHT22;3613;48.902;9.204;2023-02-28T02:11:36;-2.40;99.90
7143;DHT22;3613;48.902;9.204;2023-02-28T02:17:35;-2.50;99.90
7143;DHT22;3613;48.902;9.204;2023-02-28T02:25:36;-2.50;99.90
7143;DHT22;3613;48.902;9.204;2023-02-28T02:31:24;-2.40;99.90
7143;DHT22;3613;48.902;9.204;2023-02-28T02:42:29;-2.40;99.90
7143;DHT22;3613;48.902;9.204;2023-02-28T02:45:11;-2.30;99.90
7143;DHT22;3613;48.902;9.204;2023-02-28T02:47:39;-2.30;99.90
7143;DHT22;3613;48.902;9.204;2023-02-28T02:50:11;-2.20;99.90
7143;DHT22;3613;48.902;9.204;2023-02-28T02:52:43;-2.20;99.90
7143;DHT22;3613;48.902;9.204;2023-02-28T02:55:12;-2.10;99.90
7143;DHT22;3613;48.902;9.204;2023-02-28T02:57:48;-2.20;99.90
7143;DHT22;3613;48.902;9.204;2023-02-28T03:00:22;-2.20;99.90
7143;DHT22;3613;48.902;9.204;2023-02-28T03:02:49;-2.10;99.90
7143;DHT22;3613;48.902;9.204;2023-02-28T03:05:42;-2.10;99.90
7143;DHT22;3613;48.902;9.204;2023-02-28T03:08:12;-2.00;99.90
7143;DHT22;3613;48.902;9.204;2023-02-28T03:10:40;-2.00;99.90
7143;DHT22;3613;48.902;9.204;2023-02-28T03:13:37;-1.80;99.90
7143;DHT22;3613;48.902;9.204;2023-02-28T03:21:38;-1.70;99.90
7143;DHT22;3613;48.902;9.204;2023-02-28T03:26:57;-1.70;99.90
7143;DHT22;3613;48.902;9.204;2023-02-28T03:29:32;-1.70;99.90
7143;DHT22;3613;48.902;9.204;2023-02-28T03:34:37;0.90;99.90
7143;DHT22;3613;48.902;9.204;2023-02-28T03:37:10;-1.60;99.90
7143;DHT22;3613;48.902;9.204;2023-02-28T03:39:51;-1.60;99.90
7143;DHT22;3613;48.902;9.204;2023-02-28T03:42:24;-1.40;99.90
7143;DHT22;3613;48.902;9.204;2023-02-28T03:45:04;-1.40;99.90
7143;DHT22;3613;48.902;9.204;2023-02-28T03:47:42;-1.30;99.90
7143;DHT22;3613;48.902;9.204;2023-02-28T03:50:40;-1.30;99.90
7143;DHT22;3613;48.902;9.204;2023-02-28T03:53:22;-1.30;99.90
7143;DHT22;3613;48.902;9.204;2023-02-28T03:56:01;-1.30;99.90
7143;DHT22;3613;48.902;9.204;2023-02-28T03:58:55;-1.20;99.90
7143;DHT22;3613;48.902;9.204;2023-02-28T04:01:39;-1.30;99.90
7143;DHT22;3613;48.902;9.204;2023-02-28T04:04:07;-1.30;99.90
7143;DHT22;3613;48.902;9.204;2023-02-28T04:06:34;-1.20;99.90
7143;DHT22;3613;48.902;9.204;2023-02-28T04:09:00;-1.20;99.90
7143;DHT22;3613;48.902;9.204;2023-02-28T04:11:37;-1.30;99.90
7143;DHT22;3613;48.902;9.204;2023-02-28T04:14:05;-1.20;99.90
7143;DHT22;3613;48.902;9.204;2023-02-28T04:16:32;-1.20;99.90
7143;DHT22;3613;48.902;9.204;2023-02-28T04:19:00;-1.20;99.90
7143;DHT22;3613;48.902;9.204;2023-02-28T04:21:34;-1.20;99.90
7143;DHT22;3613;48.902;9.204;2023-02-28T04:24:03;-1.20;99.90
7143;DHT22;3613;48.902;9.204;2023-02-28T04:26:39;-1.20;99.90
7143;DHT22;3613;48.902;9.204;2023-02-28T04:29:05;-1.20;99.90
7143;DHT22;3613;48.902;9.204;2023-02-28T04:31:31;-1.20;99.90
7143;DHT22;3613;48.902;9.204;2023-02-28T04:33:57;-1.20;99.90
7143;DHT22;3613;48.902;9.204;2023-02-28T04:36:23;-1.10;99.90
7143;DHT22;3613;48.902;9.204;2023-02-28T04:38:49;-1.10;99.90
7143;DHT22;3613;48.902;9.204;2023-02-28T04:41:16;-1.10;99.90
7143;DHT22;3613;48.902;9.204;2023-02-28T04:43:42;-1.20;99.90
7143;DHT22;3613;48.902;9.204;2023-02-28T04:46:08;-1.20;99.90
7143;DHT22;3613;48.902;9.204;2023-02-28T04:48:38;-1.20;99.90
7143;DHT22;3613;48.902;9.204;2023-02-28T04:51:12;-1.10;99.90
7143;DHT22;3613;48.902;9.204;2023-02-28T04:53:39;-1.10;99.90
7143;DHT22;3613;48.902;9.204;2023-02-28T04:56:05;-1.10;99.90
7143;DHT22;3613;48.902;9.204;2023-02-28T04:58:34;-1.10;99.90
7143;DHT22;3613;48.902;9.204;2023-02-28T05:01:06;-1.10;99.90
7143;DHT22;3613;48.902;9.204;2023-02-28T05:03:41;-1.20;99.90
7143;DHT22;3613;48.902;9.204;2023-02-28T05:06:08;-1.00;99.90
7143;DHT22;3613;48.902;9.204;2023-02-28T05:08:34;-1.10;99.90
7143;DHT22;3613;48.902;9.204;2023-02-28T05:11:00;-1.10;99.90
7143;DHT22;3613;48.902;9.204;2023-02-28T05:13:27;-1.10;99.90
7143;DHT22;3613;48.902;9.204;2023-02-28T05:15:55;-1.10;99.90
7143;DHT22;3613;48.902;9.204;2023-02-28T05:18:21;-1.00;99.90
7143;DHT22;3613;48.902;9.204;2023-02-28T05:20:47;-1.10;99.90
7143;DHT22;3613;48.902;9.204;2023-02-28T05:23:14;-1.10;99.90
7143;DHT22;3613;48.902;9.204;2023-02-28T05:25:40;-1.00;99.90
7143;DHT22;3613;48.902;9.204;2023-02-28T05:28:06;-1.00;99.90
7143;DHT22;3613;48.902;9.204;2023-02-28T05:30:32;-1.00;99.90
7143;DHT22;3613;48.902;9.204;2023-02-28T05:33:00;-1.00;99.90
7143;DHT22;3613;48.902;9.204;2023-02-28T05:35:28;-1.00;99.90
7143;DHT22;3613;48.902;9.204;2023-02-28T05:37:54;-0.90;99.90
7143;DHT22;3613;48.902;9.204;2023-02-28T05:40:19;-0.90;99.90
7143;DHT22;3613;48.902;9.204;2023-02-28T05:42:46;-1.00;99.90
7143;DHT22;3613;48.902;9.204;2023-02-28T05:45:12;-1.00;99.90
7143;DHT22;3613;48.902;9.204;2023-02-28T05:47:37;-1.00;99.90
7143;DHT22;3613;48.902;9.204;2023-02-28T05:50:05;-1.00;99.90
7143;DHT22;3613;48.902;9.204;2023-02-28T05:52:31;-1.00;99.90
7143;DHT22;3613;48.902;9.204;2023-02-28T05:54:57;-1.00;99.90
7143;DHT22;3613;48.902;9.204;2023-02-28T05:57:23;-0.90;99.90
7143;DHT22;3613;48.902;9.204;2023-02-28T05:59:48;-0.90;99.90
7143;DHT22;3613;48.902;9.204;2023-02-28T06:02:15;-0.90;99.90
7143;DHT22;3613;48.902;9.204;2023-02-28T06:04:42;-0.90;99.90
7143;DHT22;3613;48.902;9.204;2023-02-28T06:07:09;-1.00;99.90
7143;DHT22;3613;48.902;9.204;2023-02-28T06:09:35;-1.00;99.90
7143;DHT22;3613;48.902;9.204;2023-02-28T06:12:06;-1.00;99.90
7143;DHT22;3613;48.902;9.204;2023-02-28T06:14:33;-1.00;99.90
7143;DHT22;3613;48.902;9.204;2023-02-28T06:17:00;-0.90;99.90
7143;DHT22;3613;48.902;9.204;2023-02-28T06:19:28;-0.90;99.90
7143;DHT22;3613;48.902;9.204;2023-02-28T06:21:55;-0.90;99.90
7143;DHT22;3613;48.902;9.204;2023-02-28T06:24:23;-0.80;99.90
7143;DHT22;3613;48.902;9.204;2023-02-28T06:26:52;0.40;99.90
7143;DHT22;3613;48.902;9.204;2023-02-28T06:29:21;-2.70;99.90
7143;DHT22;3613;48.902;9.204;2023-02-28T06:31:47;-0.80;99.90
7143;DHT22;3613;48.902;9.204;2023-02-28T06:34:13;-0.80;99.90
7143;DHT22;3613;48.902;9.204;2023-02-28T06:36:42;-0.70;99.90
7143;DHT22;3613;48.902;9.204;2023-02-28T06:39:08;-0.70;99.90
7143;DHT22;3613;48.902;9.204;2023-02-28T06:41:34;-0.70;99.90
7143;DHT22;3613;48.902;9.204;2023-02-28T06:44:04;-0.70;99.90
7143;DHT22;3613;48.902;9.204;2023-02-28T06:46:35;-0.70;99.90
7143;DHT22;3613;48.902;9.204;2023-02-28T06:49:03;-0.70;99.90
7143;DHT22;3613;48.902;9.204;2023-02-28T06:51:29;-0.70;99.90
7143;DHT22;3613;48.902;9.204;2023-02-28T06:53:54;-0.70;99.90
7143;DHT22;3613;48.902;9.204;2023-02-28T06:56:20;-0.70;99.90
7143;DHT22;3613;48.902;9.204;2023-02-28T06:58:50;-0.60;99.90
7143;DHT22;3613;48.902;9.204;2023-02-28T07:01:17;-0.60;99.90
7143;DHT22;3613;48.902;9.204;2023-02-28T07:03:42;-0.60;99.90
7143;DHT22;3613;48.902;9.204;2023-02-28T07:06:08;-0.60;99.90
7143;DHT22;3613;48.902;9.204;2023-02-28T07:08:36;-0.60;99.90
7143;DHT22;3613;48.902;9.204;2023-02-28T07:11:03;-0.60;99.90
7143;DHT22;3613;48.902;9.204;2023-02-28T07:13:29;-0.60;99.90
7143;DHT22;3613;48.902;9.204;2023-02-28T07:16:05;-0.60;99.90
7143;DHT22;3613;48.902;9.204;2023-02-28T07:18:31;-0.60;99.90
7143;DHT22;3613;48.902;9.204;2023-02-28T07:21:01;-0.60;99.90
7143;DHT22;3613;48.902;9.204;2023-02-28T07:23:26;-0.60;99.90
7143;DHT22;3613;48.902;9.204;2023-02-28T07:25:52;-0.50;99.90
7143;DHT22;3613;48.902;9.204;2023-02-28T07:28:17;-0.40;99.90
7143;DHT22;3613;48.902;9.204;2023-02-28T07:30:48;-0.40;99.90
7143;DHT22;3613;48.902;9.204;2023-02-28T07:33:14;-0.50;99.90
7143;DHT22;3613;48.902;9.204;2023-02-28T07:35:42;-0.50;99.90
7143;DHT22;3613;48.902;9.204;2023-02-28T07:38:08;-0.40;99.90
7143;DHT22;3613;48.902;9.204;2023-02-28T07:40:35;-0.50;99.90
7143;DHT22;3613;48.902;9.204;2023-02-28T07:43:02;-0.40;99.90
7143;DHT22;3613;48.902;9.204;2023-02-28T07:45:29;-0.40;99.90
7143;DHT22;3613;48.902;9.204;2023-02-28T07:47:55;-0.40;99.90
7143;DHT22;3613;48.902;9.204;2023-02-28T07:50:21;-0.40;99.90
7143;DHT22;3613;48.902;9.204;2023-02-28T07:52:49;-0.40;99.90
7143;DHT22;3613;48.902;9.204;2023-02-28T07:55:15;-0.40;99.90
7143;DHT22;3613;48.902;9.204;2023-02-28T07:57:44;-0.80;99.90
7143;DHT22;3613;48.902;9.204;2023-02-28T08:00:11;-0.40;99.90
7143;DHT22;3613;48.902;9.204;2023-02-28T08:02:39;-0.40;99.90
7143;DHT22;3613;48.902;9.204;2023-02-28T08:05:05;-0.40;99.90
7143;DHT22;3613;48.902;9.204;2023-02-28T08:07:31;-0.30;99.90
7143;DHT22;3613;48.902;9.204;2023-02-28T08:09:57;-0.30;99.90
7143;DHT22;3613;48.902;9.204;2023-02-28T08:12:23;0.00;99.90
7143;DHT22;3613;48.902;9.204;2023-02-28T08:14:49;-0.10;99.90
7143;DHT22;3613;48.902;9.204;2023-02-28T08:17:14;-0.10;99.90
7143;DHT22;3613;48.902;9.204;2023-02-28T08:19:40;-0.10;99.90
7143;DHT22;3613;48.902;9.204;2023-02-28T08:22:08;0.00;99.90
7143;DHT22;3613;48.902;9.204;2023-02-28T08:24:36;0.00;99.90
7143;DHT22;3613;48.902;9.204;2023-02-28T08:27:01;0.10;99.90
7143;DHT22;3613;48.902;9.204;2023-02-28T08:29:27;0.10;99.90
7143;DHT22;3613;48.902;9.204;2023-02-28T08:34:18;0.10;99.90
7143;DHT22;3613;48.902;9.204;2023-02-28T08:36:44;0.10;99.90
7143;DHT22;3613;48.902;9.204;2023-02-28T08:39:11;0.10;99.90
7143;DHT22;3613;48.902;9.204;2023-02-28T08:41:39;0.10;99.90
7143;DHT22;3613;48.902;9.204;2023-02-28T08:44:06;0.10;99.90
7143;DHT22;3613;48.902;9.204;2023-02-28T08:46:32;0.10;99.90
7143;DHT22;3613;48.902;9.204;2023-02-28T08:48:57;0.20;99.90
7143;DHT22;3613;48.902;9.204;2023-02-28T08:51:26;0.30;99.90
7143;DHT22;3613;48.902;9.204;2023-02-28T08:53:57;0.30;99.90
7143;DHT22;3613;48.902;9.204;2023-02-28T08:56:23;0.40;99.90
7143;DHT22;3613;48.902;9.204;2023-02-28T08:58:53;0.40;99.90
7143;DHT22;3613;48.902;9.204;2023-02-28T09:01:29;0.60;99.90
7143;DHT22;3613;48.902;9.204;2023-02-28T09:03:57;0.70;99.90
7143;DHT22;3613;48.902;9.204;2023-02-28T09:06:24;0.80;99.90
7143;DHT22;3613;48.902;9.204;2023-02-28T09:08:53;1.00;99.90
7143;DHT22;3613;48.902;9.204;2023-02-28T09:11:19;3.60;99.90
7143;DHT22;3613;48.902;9.204;2023-02-28T09:13:47;1.00;99.90
7143;DHT22;3613;48.902;9.204;2023-02-28T09:16:14;1.00;99.90
7143;DHT22;3613;48.902;9.204;2023-02-28T09:18:44;3.50;99.90
7143;DHT22;3613;48.902;9.204;2023-02-28T09:21:12;1.10;99.90
7143;DHT22;3613;48.902;9.204;2023-02-28T09:23:43;1.20;99.90
7143;DHT22;3613;48.902;9.204;2023-02-28T09:26:21;1.30;99.90
7143;DHT22;3613;48.902;9.204;2023-02-28T09:28:48;1.60;99.90
7143;DHT22;3613;48.902;9.204;2023-02-28T09:31:19;1.60;99.90
7143;DHT22;3613;48.902;9.204;2023-02-28T09:33:50;1.70;99.90
7143;DHT22;3613;48.902;9.204;2023-02-28T09:36:16;1.60;99.90
7143;DHT22;3613;48.902;9.204;2023-02-28T09:38:42;1.60;99.90
7143;DHT22;3613;48.902;9.204;2023-02-28T09:41:20;1.70;99.90
7143;DHT22;3613;48.902;9.204;2023-02-28T09:43:55;1.70;99.90
7143;DHT22;3613;48.902;9.204;2023-02-28T09:48:56;1.50;99.90
7143;DHT22;3613;48.902;9.204;2023-02-28T09:51:50;1.50;99.90
7143;DHT22;3613;48.902;9.204;2023-02-28T09:54:19;1.70;99.90
7143;DHT22;3613;48.902;9.204;2023-02-28T09:57:07;1.70;99.90
7143;DHT22;3613;48.902;9.204;2023-02-28T10:05:15;1.90;99.90
7143;DHT22;3613;48.902;9.204;2023-02-28T10:10:57;2.10;99.90
7143;DHT22;3613;48.902;9.204;2023-02-28T10:16:31;2.10;99.90
7143;DHT22;3613;48.902;9.204;2023-02-28T10:19:20;2.30;99.90
7143;DHT22;3613;48.902;9.204;2023-02-28T10:24:37;2.30;99.90
7143;DHT22;3613;48.902;9.204;2023-02-28T10:27:18;2.40;99.90
7143;DHT22;3613;48.902;9.204;2023-02-28T10:29:49;2.60;99.90
7143;DHT22;3613;48.902;9.204;2023-02-28T10:32:18;2.70;99.90
7143;DHT22;3613;48.902;9.204;2023-02-28T10:34:44;2.90;99.90
7143;DHT22;3613;48.902;9.204;2023-02-28T10:37:15;5.80;99.90
7143;DHT22;3613;48.902;9.204;2023-02-28T10:39:43;2.90;99.90
7143;DHT22;3613;48.902;9.204;2023-02-28T10:42:28;3.10;99.90
7143;DHT22;3613;48.902;9.204;2023-02-28T10:53:22;3.30;99.90
7143;DHT22;3613;48.902;9.204;2023-02-28T10:56:04;3.30;99.90
7143;DHT22;3613;48.902;9.204;2023-02-28T11:01:43;3.50;99.90
7143;DHT22;3613;48.902;9.204;2023-02-28T11:04:38;3.50;99.90
7143;DHT22;3613;48.902;9.204;2023-02-28T11:07:20;3.40;99.90
7143;DHT22;3613;48.902;9.204;2023-02-28T11:09:54;3.40;99.90
7143;DHT22;3613;48.902;9.204;2023-02-28T11:12:33;3.50;99.90
7143;DHT22;3613;48.902;9.204;2023-02-28T11:15:07;3.50;99.90
7143;DHT22;3613;48.902;9.204;2023-02-28T11:17:46;3.40;99.90
7143;DHT22;3613;48.902;9.204;2023-02-28T11:20:21;3.70;99.90
7143;DHT22;3613;48.902;9.204;2023-02-28T11:22:50;3.90;99.90
7143;DHT22;3613;48.902;9.204;2023-02-28T11:25:23;3.60;99.90
7143;DHT22;3613;48.902;9.204;2023-02-28T11:27:53;3.80;99.90
7143;DHT22;3613;48.902;9.204;2023-02-28T11:33:00;3.80;99.90
7143;DHT22;3613;48.902;9.204;2023-02-28T11:35:36;4.10;99.90
7143;DHT22;3613;48.902;9.204;2023-02-28T11:38:09;4.40;99.90
7143;DHT22;3613;48.902;9.204;2023-02-28T11:48:57;4.80;99.90
7143;DHT22;3613;48.902;9.204;2023-02-28T11:51:48;4.40;99.90
7143;DHT22;3613;48.902;9.204;2023-02-28T11:57:00;5.40;99.90
7143;DHT22;3613;48.902;9.204;2023-02-28T11:59:56;4.50;99.90
7143;DHT22;3613;48.902;9.204;2023-02-28T12:02:41;4.70;99.90
7143;DHT22;3613;48.902;9.204;2023-02-28T12:10:32;7.70;94.90
7143;DHT22;3613;48.902;9.204;2023-02-28T12:13:24;8.30;92.70
7143;DHT22;3613;48.902;9.204;2023-02-28T12:16:12;8.30;90.70
7143;DHT22;3613;48.902;9.204;2023-02-28T12:21:57;8.70;87.40
7143;DHT22;3613;48.902;9.204;2023-02-28T12:27:14;8.80;83.10
7143;DHT22;3613;48.902;9.204;2023-02-28T12:29:54;8.70;81.70
7143;DHT22;3613;48.902;9.204;2023-02-28T12:35:34;8.20;81.40
7143;DHT22;3613;48.902;9.204;2023-02-28T12:38:09;8.00;83.20
7143;DHT22;3613;48.902;9.204;2023-02-28T12:41:42;8.30;82.70
7143;DHT22;3613;48.902;9.204;2023-02-28T12:43:45;8.40;82.20
7143;DHT22;3613;48.902;9.204;2023-02-28T12:46:32;8.80;82.00
7143;DHT22;3613;48.902;9.204;2023-02-28T12:49:05;8.40;81.00
7143;DHT22;3613;48.902;9.204;2023-02-28T12:51:34;8.30;81.70
7143;DHT22;3613;48.902;9.204;2023-02-28T12:59:01;9.60;75.70
7143;DHT22;3613;48.902;9.204;2023-02-28T13:07:19;9.80;69.30
7143;DHT22;3613;48.902;9.204;2023-02-28T13:09:55;10.20;67.50
7143;DHT22;3613;48.902;9.204;2023-02-28T13:12:21;10.80;65.10
7143;DHT22;3613;48.902;9.204;2023-02-28T13:14:48;10.50;64.00
7143;DHT22;3613;48.902;9.204;2023-02-28T13:17:23;9.60;67.70
7143;DHT22;3613;48.902;9.204;2023-02-28T13:24:56;9.70;68.70
7143;DHT22;3613;48.902;9.204;2023-02-28T13:27:39;9.90;69.20
7143;DHT22;3613;48.902;9.204;2023-02-28T13:38:47;9.00;70.10
7143;DHT22;3613;48.902;9.204;2023-02-28T13:46:31;9.00;69.80
7143;DHT22;3613;48.902;9.204;2023-02-28T13:51:53;9.00;70.00
7143;DHT22;3613;48.902;9.204;2023-02-28T14:05:19;6.10;82.50
7143;DHT22;3613;48.902;9.204;2023-02-28T14:07:53;6.00;85.60
7143;DHT22;3613;48.902;9.204;2023-02-28T14:13:37;5.80;86.90
7143;DHT22;3613;48.902;9.204;2023-02-28T14:16:10;5.80;89.50
7143;DHT22;3613;48.902;9.204;2023-02-28T14:18:41;5.80;88.80
7143;DHT22;3613;48.902;9.204;2023-02-28T14:37:41;5.50;92.90
7143;DHT22;3613;48.902;9.204;2023-02-28T14:40:30;5.50;92.40
7143;DHT22;3613;48.902;9.204;2023-02-28T14:43:05;5.40;93.40
7143;DHT22;3613;48.902;9.204;2023-02-28T14:45:33;5.40;93.40
7143;DHT22;3613;48.902;9.204;2023-02-28T14:48:01;5.50;94.00
7143;DHT22;3613;48.902;9.204;2023-02-28T14:50:31;5.60;95.10
7143;DHT22;3613;48.902;9.204;2023-02-28T14:52:58;5.60;94.60
7143;DHT22;3613;48.902;9.204;2023-02-28T14:55:28;5.60;95.20
7143;DHT22;3613;48.902;9.204;2023-02-28T14:58:02;5.70;94.90
7143;DHT22;3613;48.902;9.204;2023-02-28T15:00:34;5.50;95.10
7143;DHT22;3613;48.902;9.204;2023-02-28T15:03:13;5.50;95.40
7143;DHT22;3613;48.902;9.204;2023-02-28T15:05:52;5.50;95.60
7143;DHT22;3613;48.902;9.204;2023-02-28T15:08:20;5.50;95.40
7143;DHT22;3613;48.902;9.204;2023-02-28T15:13:44;5.40;96.50
7143;DHT22;3613;48.902;9.204;2023-02-28T15:16:17;5.40;96.70
7143;DHT22;3613;48.902;9.204;2023-02-28T15:21:22;5.40;97.10
7143;DHT22;3613;48.902;9.204;2023-02-28T15:23:55;5.30;97.60
7143;DHT22;3613;48.902;9.204;2023-02-28T15:26:30;5.30;98.20
7143;DHT22;3613;48.902;9.204;2023-02-28T15:29:06;5.40;98.80
7143;DHT22;3613;48.902;9.204;2023-02-28T15:31:39;5.60;98.30
7143;DHT22;3613;48.902;9.204;2023-02-28T15:34:06;5.30;98.00
7143;DHT22;3613;48.902;9.204;2023-02-28T15:36:43;5.30;98.70
7143;DHT22;3613;48.902;9.204;2023-02-28T15:39:22;5.30;97.90
7143;DHT22;3613;48.902;9.204;2023-02-28T15:41:48;5.30;98.50
7143;DHT22;3613;48.902;9.204;2023-02-28T15:49:21;5.10;99.80
7143;DHT22;3613;48.902;9.204;2023-02-28T15:51:49;5.10;99.90
7143;DHT22;3613;48.902;9.204;2023-02-28T15:54:32;5.00;99.90
7143;DHT22;3613;48.902;9.204;2023-02-28T15:57:03;4.90;99.90
7143;DHT22;3613;48.902;9.204;2023-02-28T15:59:31;4.90;99.90
7143;DHT22;3613;48.902;9.204;2023-02-28T16:02:32;4.80;99.90
7143;DHT22;3613;48.902;9.204;2023-02-28T16:05:26;4.70;99.90
7143;DHT22;3613;48.902;9.204;2023-02-28T16:08:00;4.70;99.90
7143;DHT22;3613;48.902;9.204;2023-02-28T16:10:27;4.70;99.90
7143;DHT22;3613;48.902;9.204;2023-02-28T16:12:57;4.60;99.90
7143;DHT22;3613;48.902;9.204;2023-02-28T16:15:24;4.50;99.90
7143;DHT22;3613;48.902;9.204;2023-02-28T16:17:52;4.50;99.90
7143;DHT22;3613;48.902;9.204;2023-02-28T16:20:21;4.50;99.90
7143;DHT22;3613;48.902;9.204;2023-02-28T16:22:47;4.40;99.90
7143;DHT22;3613;48.902;9.204;2023-02-28T16:25:17;6.90;99.90
7143;DHT22;3613;48.902;9.204;2023-02-28T16:27:50;4.30;99.90
7143;DHT22;3613;48.902;9.204;2023-02-28T16:30:21;4.30;99.90
7143;DHT22;3613;48.902;9.204;2023-02-28T16:32:50;4.30;99.90
7143;DHT22;3613;48.902;9.204;2023-02-28T16:35:19;4.20;99.90
7143;DHT22;3613;48.902;9.204;2023-02-28T16:37:47;4.20;99.90
7143;DHT22;3613;48.902;9.204;2023-02-28T16:40:15;4.20;99.90
7143;DHT22;3613;48.902;9.204;2023-02-28T16:42:42;4.10;99.90
7143;DHT22;3613;48.902;9.204;2023-02-28T16:45:20;4.00;99.90
7143;DHT22;3613;48.902;9.204;2023-02-28T16:47:47;4.00;99.90
7143;DHT22;3613;48.902;9.204;2023-02-28T16:50:18;3.90;99.90
7143;DHT22;3613;48.902;9.204;2023-02-28T16:52:44;3.90;99.90
7143;DHT22;3613;48.902;9.204;2023-02-28T16:55:10;3.80;99.90
7143;DHT22;3613;48.902;9.204;2023-02-28T16:57:35;3.80;99.90
7143;DHT22;3613;48.902;9.204;2023-02-28T17:00:10;3.70;99.90
7143;DHT22;3613;48.902;9.204;2023-02-28T17:02:36;3.60;99.90
7143;DHT22;3613;48.902;9.204;2023-02-28T17:05:02;3.60;99.90
7143;DHT22;3613;48.902;9.204;2023-02-28T17:07:30;3.50;99.90
7143;DHT22;3613;48.902;9.204;2023-02-28T17:10:00;3.40;99.90
7143;DHT22;3613;48.902;9.204;2023-02-28T17:12:33;3.40;99.90
7143;DHT22;3613;48.902;9.204;2023-02-28T17:15:02;3.30;99.90
7143;DHT22;3613;48.902;9.204;2023-02-28T17:17:28;3.30;99.90
7143;DHT22;3613;48.902;9.204;2023-02-28T17:19:54;3.20;99.90
7143;DHT22;3613;48.902;9.204;2023-02-28T17:22:20;3.10;99.90
7143;DHT22;3613;48.902;9.204;2023-02-28T17:24:45;3.00;99.90
7143;DHT22;3613;48.902;9.204;2023-02-28T17:27:12;3.00;99.90
7143;DHT22;3613;48.902;9.204;2023-02-28T17:29:38;4.30;99.90
7143;DHT22;3613;48.902;9.204;2023-02-28T17:32:06;2.70;99.90
7143;DHT22;3613;48.902;9.204;2023-02-28T17:34:32;2.70;99.90
7143;DHT22;3613;48.902;9.204;2023-02-28T17:37:01;2.60;99.90
7143;DHT22;3613;48.902;9.204;2023-02-28T17:39:26;2.50;99.90
7143;DHT22;3613;48.902;9.204;2023-02-28T17:41:55;2.40;99.90
7143;DHT22;3613;48.902;9.204;2023-02-28T17:44:22;2.40;99.90
7143;DHT22;3613;48.902;9.204;2023-02-28T17:46:52;2.30;99.90
7143;DHT22;3613;48.902;9.204;2023-02-28T17:49:21;2.20;99.90
7143;DHT22;3613;48.902;9.204;2023-02-28T17:51:47;2.20;99.90
7143;DHT22;3613;48.902;9.204;2023-02-28T17:54:13;2.10;99.90
7143;DHT22;3613;48.902;9.204;2023-02-28T17:56:39;2.00;99.90
7143;DHT22;3613;48.902;9.204;2023-02-28T17:59:05;1.90;99.90
7143;DHT22;3613;48.902;9.204;2023-02-28T18:01:31;1.70;99.90
7143;DHT22;3613;48.902;9.204;2023-02-28T18:03:59;1.90;99.90
7143;DHT22;3613;48.902;9.204;2023-02-28T18:06:30;1.60;99.90
7143;DHT22;3613;48.902;9.204;2023-02-28T18:08:56;1.60;99.90
7143;DHT22;3613;48.902;9.204;2023-02-28T18:11:25;1.50;99.90
7143;DHT22;3613;48.902;9.204;2023-02-28T18:14:06;1.40;99.90
7143;DHT22;3613;48.902;9.204;2023-02-28T18:16:32;1.20;99.90
7143;DHT22;3613;48.902;9.204;2023-02-28T18:19:00;1.10;99.90
7143;DHT22;3613;48.902;9.204;2023-02-28T18:21:27;1.10;99.90
7143;DHT22;3613;48.902;9.204;2023-02-28T18:23:56;1.00;99.90
7143;DHT22;3613;48.902;9.204;2023-02-28T18:26:22;0.90;99.90
7143;DHT22;3613;48.902;9.204;2023-02-28T18:28:48;0.80;99.90
7143;DHT22;3613;48.902;9.204;2023-02-28T18:31:16;0.60;99.90
7143;DHT22;3613;48.902;9.204;2023-02-28T18:33:43;0.50;99.90
7143;DHT22;3613;48.902;9.204;2023-02-28T18:36:11;0.40;99.90
7143;DHT22;3613;48.902;9.204;2023-02-28T18:38:36;0.40;99.90
7143;DHT22;3613;48.902;9.204;2023-02-28T18:41:04;0.30;99.90
7143;DHT22;3613;48.902;9.204;2023-02-28T18:43:31;0.30;99.90
7143;DHT22;3613;48.902;9.204;2023-02-28T18:45:57;0.20;99.90
7143;DHT22;3613;48.902;9.204;2023-02-28T18:48:27;0.10;99.90
7143;DHT22;3613;48.902;9.204;2023-02-28T18:50:53;0.00;99.90
7143;DHT22;3613;48.902;9.204;2023-02-28T18:53:18;0.00;99.90
7143;DHT22;3613;48.902;9.204;2023-02-28T18:55:44;-0.10;99.90
7143;DHT22;3613;48.902;9.204;2023-02-28T18:58:12;-0.20;99.90
7143;DHT22;3613;48.902;9.204;2023-02-28T19:00:39;-0.30;99.90
7143;DHT22;3613;48.902;9.204;2023-02-28T19:03:04;-0.30;99.90
7143;DHT22;3613;48.902;9.204;2023-02-28T19:05:32;-0.40;99.90
7143;DHT22;3613;48.902;9.204;2023-02-28T19:08:02;-0.30;99.90
7143;DHT22;3613;48.902;9.204;2023-02-28T19:10:31;-0.20;99.90
7143;DHT22;3613;48.902;9.204;2023-02-28T19:12:57;-0.20;99.90
7143;DHT22;3613;48.902;9.204;2023-02-28T19:15:23;-0.10;99.90